createdAt,value
2023-02-27T00:00:57.818Z,100.00
2023-02-27T00:03:24.052Z,100.00
2023-02-27T00:05:49.901Z,100.00
2023-02-27T00:08:15.755Z,100.00
2023-02-27T00:10:41.633Z,100.00
2023-02-27T00:13:07.853Z,100.00
2023-02-27T00:15:33.784Z,100.00
2023-02-27T00:17:59.689Z,100.00
2023-02-27T00:20:25.959Z,100.00
2023-02-27T00:22:51.876Z,100.00
2023-02-27T00:25:18.190Z,100.00
2023-02-27T00:27:44.283Z,100.00
2023-02-27T00:30:13.413Z,100.00
2023-02-27T00:32:41.267Z,100.00
2023-02-27T00:35:09.265Z,100.00
2023-02-27T00:37:35.423Z,100.00
2023-02-27T00:40:01.858Z,100.00
2023-02-27T00:42:27.932Z,100.00
2023-02-27T00:44:54.429Z,100.00
2023-02-27T00:47:20.362Z,100.00
2023-02-27T00:49:46.204Z,100.00
2023-02-27T00:52:12.013Z,100.00
2023-02-27T00:54:37.885Z,100.00
2023-02-27T00:57:03.847Z,100.00
2023-02-27T00:59:29.702Z,100.00
2023-02-27T01:01:55.668Z,100.00
2023-02-27T01:04:21.590Z,100.00
2023-02-27T01:06:47.432Z,100.00
2023-02-27T01:09:13.255Z,100.00
2023-02-27T01:11:39.038Z,100.00
2023-02-27T01:14:04.852Z,100.00
2023-02-27T01:16:31.004Z,100.00
2023-02-27T01:18:56.820Z,100.00
2023-02-27T01:21:23.682Z,100.00
2023-02-27T01:23:49.578Z,100.00
2023-02-27T01:26:15.513Z,100.00
2023-02-27T01:28:41.433Z,100.00
2023-02-27T01:31:08.640Z,100.00
2023-02-27T01:33:34.576Z,100.00
2023-02-27T01:36:00.660Z,100.00
2023-02-27T01:38:26.599Z,100.00
2023-02-27T01:40:52.665Z,100.00
2023-02-27T01:43:20.770Z,100.00
2023-02-27T01:45:48.263Z,100.00
2023-02-27T01:48:28.280Z,100.00
2023-02-27T01:50:56.806Z,100.00
2023-02-27T01:53:25.534Z,100.00
2023-02-27T01:55:59.890Z,100.00
2023-02-27T01:58:26.398Z,100.00
2023-02-27T02:00:52.570Z,100.00
2023-02-27T02:03:33.928Z,100.00
2023-02-27T02:06:02.124Z,100.00
2023-02-27T02:08:32.026Z,100.00
2023-02-27T02:10:58.602Z,100.00
2023-02-27T02:13:25.623Z,100.00
2023-02-27T02:15:56.970Z,100.00
2023-02-27T02:18:41.561Z,100.00
2023-02-27T02:21:26.601Z,100.00
2023-02-27T02:24:15.238Z,100.00
2023-02-27T02:27:08.519Z,100.00
2023-02-27T02:29:47.349Z,100.00
2023-02-27T02:32:19.069Z,100.00
2023-02-27T02:34:50.691Z,100.00
2023-02-27T02:37:41.456Z,100.00
2023-02-27T02:40:15.612Z,100.00
2023-02-27T02:43:07.760Z,100.00
2023-02-27T02:45:43.781Z,100.00
2023-02-27T02:48:36.543Z,100.00
2023-02-27T02:51:16.587Z,100.00
2023-02-27T02:53:55.010Z,100.00
2023-02-27T02:56:29.869Z,100.00
2023-02-27T02:59:01.662Z,100.00
2023-02-27T03:01:35.467Z,100.00
2023-02-27T03:04:04.040Z,100.00
2023-02-27T03:06:38.036Z,100.00
2023-02-27T03:09:28.291Z,100.00
2023-02-27T03:11:57.491Z,100.00
2023-02-27T03:14:55.194Z,100.00
2023-02-27T03:17:30.129Z,100.00
2023-02-27T03:20:01.965Z,100.00
2023-02-27T03:22:33.558Z,100.00
2023-02-27T03:25:02.573Z,100.00
2023-02-27T03:27:36.426Z,100.00
2023-02-27T03:30:08.141Z,100.00
2023-02-27T03:32:56.202Z,100.00
2023-02-27T03:35:29.485Z,100.00
2023-02-27T03:38:11.048Z,100.00
2023-02-27T03:40:58.388Z,100.00
2023-02-27T03:43:35.686Z,100.00
2023-02-27T03:46:21.779Z,100.00
2023-02-27T03:48:47.791Z,100.00
2023-02-27T03:51:17.620Z,100.00
2023-02-27T03:53:56.876Z,100.00
2023-02-27T03:56:31.956Z,100.00
2023-02-27T03:58:58.295Z,100.00
2023-02-27T04:01:24.957Z,100.00
2023-02-27T04:03:56.876Z,100.00
2023-02-27T04:06:41.881Z,100.00
2023-02-27T04:09:26.923Z,100.00
2023-02-27T04:12:22.218Z,100.00
2023-02-27T04:15:06.334Z,100.00
2023-02-27T04:17:44.654Z,100.00
2023-02-27T04:20:34.639Z,100.00
2023-02-27T04:23:18.362Z,100.00
2023-02-27T04:26:15.230Z,100.00
2023-02-27T04:28:48.381Z,100.00
2023-02-27T04:31:23.488Z,100.00
2023-02-27T04:34:25.624Z,100.00
2023-02-27T04:37:04.889Z,100.00
2023-02-27T04:39:59.507Z,100.00
2023-02-27T04:42:30.569Z,100.00
2023-02-27T04:45:01.471Z,100.00
2023-02-27T04:47:34.088Z,100.00
2023-02-27T04:50:14.669Z,100.00
2023-02-27T04:52:45.374Z,100.00
2023-02-27T04:55:22.218Z,100.00
2023-02-27T04:57:54.783Z,100.00
2023-02-27T05:00:22.662Z,100.00
2023-02-27T05:02:59.401Z,100.00
2023-02-27T05:05:29.672Z,100.00
2023-02-27T05:08:01.259Z,100.00
2023-02-27T05:10:50.501Z,100.00
2023-02-27T05:13:48.702Z,100.00
2023-02-27T05:16:21.402Z,100.00
2023-02-27T05:18:48.213Z,100.00
2023-02-27T05:21:30.200Z,100.00
2023-02-27T05:24:08.979Z,100.00
2023-02-27T05:26:53.152Z,100.00
2023-02-27T05:29:30.837Z,100.00
2023-02-27T05:32:08.434Z,100.00
2023-02-27T05:34:43.228Z,100.00
2023-02-27T05:37:24.574Z,100.00
2023-02-27T05:39:51.713Z,100.00
2023-02-27T05:42:27.698Z,100.00
2023-02-27T05:45:21.781Z,100.00
2023-02-27T05:47:58.283Z,100.00
2023-02-27T05:50:30.652Z,100.00
2023-02-27T05:53:02.092Z,100.00
2023-02-27T05:55:35.976Z,100.00
2023-02-27T05:58:14.903Z,100.00
2023-02-27T06:00:46.814Z,100.00
2023-02-27T06:03:13.461Z,100.00
2023-02-27T06:05:41.905Z,100.00
2023-02-27T06:08:08.150Z,100.00
2023-02-27T06:10:34.083Z,100.00
2023-02-27T06:12:59.892Z,100.00
2023-02-27T06:15:26.855Z,100.00
2023-02-27T06:17:52.691Z,100.00
2023-02-27T06:20:18.711Z,100.00
2023-02-27T06:22:44.674Z,100.00
2023-02-27T06:25:10.634Z,100.00
2023-02-27T06:27:36.692Z,100.00
2023-02-27T06:30:03.007Z,100.00
2023-02-27T06:32:29.101Z,100.00
2023-02-27T06:34:55.102Z,100.00
2023-02-27T06:37:21.675Z,100.00
2023-02-27T06:39:47.589Z,100.00
2023-02-27T06:42:13.534Z,100.00
2023-02-27T06:44:39.433Z,100.00
2023-02-27T06:47:05.326Z,100.00
2023-02-27T06:49:31.594Z,100.00
2023-02-27T06:51:57.472Z,100.00
2023-02-27T06:54:23.383Z,100.00
2023-02-27T06:56:51.129Z,100.00
2023-02-27T06:59:17.747Z,100.00
2023-02-27T07:01:43.596Z,100.00
2023-02-27T07:04:14.317Z,100.00
2023-02-27T07:07:34.898Z,100.00
2023-02-27T07:09:27.526Z,100.00
2023-02-27T07:11:53.677Z,100.00
2023-02-27T07:14:19.613Z,100.00
2023-02-27T07:16:50.089Z,100.00
2023-02-27T07:19:20.128Z,100.00
2023-02-27T07:21:46.052Z,100.00
2023-02-27T07:24:11.933Z,100.00
2023-02-27T07:26:37.943Z,100.00
2023-02-27T07:29:04.529Z,100.00
2023-02-27T07:31:30.802Z,100.00
2023-02-27T07:33:56.775Z,100.00
2023-02-27T07:36:23.143Z,100.00
2023-02-27T07:38:49.523Z,100.00
2023-02-27T07:41:29.691Z,100.00
2023-02-27T07:43:56.368Z,100.00
2023-02-27T07:46:23.381Z,100.00
2023-02-27T07:48:49.757Z,100.00
2023-02-27T07:51:15.533Z,100.00
2023-02-27T07:53:41.364Z,100.00
2023-02-27T07:56:07.656Z,100.00
2023-02-27T07:58:33.478Z,100.00
2023-02-27T08:00:59.377Z,100.00
2023-02-27T08:03:25.232Z,100.00
2023-02-27T08:05:51.143Z,100.00
2023-02-27T08:08:17.174Z,100.00
2023-02-27T08:10:43.099Z,100.00
2023-02-27T08:13:08.921Z,100.00
2023-02-27T08:15:34.679Z,100.00
2023-02-27T08:18:00.525Z,100.00
2023-02-27T08:20:27.038Z,100.00
2023-02-27T08:22:52.929Z,100.00
2023-02-27T08:25:19.732Z,100.00
2023-02-27T08:27:46.226Z,100.00
2023-02-27T08:30:12.440Z,100.00
2023-02-27T08:32:38.925Z,100.00
2023-02-27T08:35:05.695Z,100.00
2023-02-27T08:37:31.578Z,100.00
2023-02-27T08:39:57.401Z,100.00
2023-02-27T08:42:23.905Z,100.00
2023-02-27T08:44:50.842Z,100.00
2023-02-27T08:47:17.337Z,100.00
2023-02-27T08:49:43.156Z,100.00
2023-02-27T08:52:09.241Z,100.00
2023-02-27T08:54:36.472Z,100.00
2023-02-27T08:57:03.454Z,100.00
2023-02-27T08:59:30.168Z,100.00
2023-02-27T09:01:56.087Z,100.00
2023-02-27T09:04:21.923Z,100.00
2023-02-27T09:06:48.015Z,100.00
2023-02-27T09:09:13.901Z,100.00
2023-02-27T09:11:40.083Z,100.00
2023-02-27T09:14:06.743Z,100.00
2023-02-27T09:16:32.875Z,100.00
2023-02-27T09:18:58.853Z,100.00
2023-02-27T09:21:24.723Z,100.00
2023-02-27T09:23:51.701Z,100.00
2023-02-27T09:26:18.015Z,99.91
2023-02-27T09:28:43.901Z,99.11
2023-02-27T09:31:11.406Z,98.90
2023-02-27T09:33:38.139Z,97.76
2023-02-27T09:36:05.390Z,98.01
2023-02-27T09:38:34.830Z,96.84
2023-02-27T09:41:03.016Z,95.05
2023-02-27T09:43:46.540Z,93.60
2023-02-27T09:46:20.881Z,95.00
2023-02-27T09:48:59.085Z,92.09
2023-02-27T09:51:26.373Z,91.37
2023-02-27T09:53:56.595Z,89.30
2023-02-27T09:56:32.137Z,87.48
2023-02-27T09:59:13.368Z,87.51
2023-02-27T10:01:47.494Z,85.79
2023-02-27T10:04:27.238Z,82.07
2023-02-27T10:07:19.163Z,74.22
2023-02-27T10:09:54.391Z,70.07
2023-02-27T10:12:38.606Z,64.76
2023-02-27T10:15:32.258Z,62.80
2023-02-27T10:18:16.858Z,59.50
2023-02-27T10:21:12.511Z,60.03
2023-02-27T10:23:53.187Z,58.64
2023-02-27T10:26:31.430Z,53.13
2023-02-27T10:29:09.784Z,46.98
2023-02-27T10:31:36.291Z,43.48
2023-02-27T10:34:02.426Z,41.05
2023-02-27T10:36:34.177Z,38.06
2023-02-27T10:39:12.202Z,36.32
2023-02-27T10:41:40.155Z,34.98
2023-02-27T10:44:06.192Z,34.91
2023-02-27T10:46:37.282Z,31.49
2023-02-27T10:49:13.355Z,31.19
2023-02-27T10:51:39.786Z,30.01
2023-02-27T10:54:24.826Z,30.11
2023-02-27T10:56:54.581Z,29.04
2023-02-27T10:59:26.770Z,27.11
2023-02-27T11:01:56.134Z,26.95
2023-02-27T11:04:38.837Z,26.20
2023-02-27T11:07:08.616Z,24.96
2023-02-27T11:09:37.518Z,23.19
2023-02-27T11:12:10.976Z,22.43
2023-02-27T11:14:49.259Z,23.83
2023-02-27T11:17:25.140Z,22.23
2023-02-27T11:19:51.059Z,21.95
2023-02-27T11:22:22.468Z,22.77
2023-02-27T11:24:48.903Z,23.91
2023-02-27T11:27:28.369Z,23.31
2023-02-27T11:29:59.407Z,20.85
2023-02-27T11:32:41.779Z,22.38
2023-02-27T11:35:33.541Z,23.76
2023-02-27T11:38:02.676Z,27.33
2023-02-27T11:40:31.939Z,24.88
2023-02-27T11:43:18.194Z,27.20
2023-02-27T11:46:08.307Z,26.46
2023-02-27T11:48:45.621Z,29.27
2023-02-27T11:51:27.398Z,25.76
2023-02-27T11:54:20.039Z,20.96
2023-02-27T11:56:53.026Z,19.57
2023-02-27T11:59:29.536Z,19.25
2023-02-27T12:02:17.213Z,17.73
2023-02-27T12:04:49.465Z,17.76
2023-02-27T12:07:33.851Z,19.21
2023-02-27T12:10:05.875Z,18.30
2023-02-27T12:12:42.376Z,18.00
2023-02-27T12:15:17.387Z,17.11
2023-02-27T12:18:22.396Z,17.87
2023-02-27T12:20:58.536Z,17.29
2023-02-27T12:23:43.837Z,16.60
2023-02-27T12:26:16.442Z,20.68
2023-02-27T12:29:08.384Z,19.95
2023-02-27T12:31:34.249Z,20.09
2023-02-27T12:34:13.724Z,21.02
2023-02-27T12:36:39.628Z,20.31
2023-02-27T12:39:17.344Z,18.59
2023-02-27T12:42:05.033Z,18.83
2023-02-27T12:44:53.339Z,22.03
2023-02-27T12:47:31.397Z,22.43
2023-02-27T12:50:15.121Z,20.51
2023-02-27T12:53:04.581Z,24.02
2023-02-27T12:55:34.784Z,25.28
2023-02-27T12:58:22.797Z,22.42
2023-02-27T13:00:51.985Z,20.33
2023-02-27T13:03:35.060Z,22.58
2023-02-27T13:06:29.890Z,23.29
2023-02-27T13:08:55.729Z,22.69
2023-02-27T13:11:32.512Z,24.66
2023-02-27T13:14:05.832Z,22.03
2023-02-27T13:16:40.731Z,19.65
2023-02-27T13:19:19.459Z,17.65
2023-02-27T13:21:54.639Z,19.86
2023-02-27T13:24:24.155Z,21.86
2023-02-27T13:27:06.552Z,26.31
2023-02-27T13:29:47.138Z,28.67
2023-02-27T13:32:21.607Z,28.77
2023-02-27T13:34:56.271Z,27.38
2023-02-27T13:37:22.299Z,25.38
2023-02-27T13:39:48.219Z,26.56
2023-02-27T13:42:26.629Z,25.51
2023-02-27T13:45:46.912Z,25.58
2023-02-27T13:48:46.522Z,25.98
2023-02-27T13:51:48.660Z,28.68
2023-02-27T13:54:19.876Z,32.44
2023-02-27T13:56:58.922Z,34.13
2023-02-27T13:59:31.180Z,33.84
2023-02-27T14:02:06.183Z,35.38
2023-02-27T14:04:35.370Z,37.33
2023-02-27T14:07:06.774Z,37.35
2023-02-27T14:09:39.052Z,39.40
2023-02-27T14:12:07.160Z,40.34
2023-02-27T14:14:49.292Z,41.89
2023-02-27T14:17:36.694Z,43.58
2023-02-27T14:20:03.750Z,43.44
2023-02-27T14:22:42.865Z,43.22
2023-02-27T14:25:17.988Z,44.07
2023-02-27T14:27:43.866Z,45.34
2023-02-27T14:30:30.457Z,44.88
2023-02-27T14:33:07.146Z,45.34
2023-02-27T14:35:35.276Z,45.67
2023-02-27T14:38:10.471Z,45.29
2023-02-27T14:40:47.437Z,46.56
2023-02-27T14:43:44.770Z,47.82
2023-02-27T14:46:19.893Z,48.12
2023-02-27T14:48:46.095Z,48.56
2023-02-27T14:51:12.119Z,49.94
2023-02-27T14:53:38.046Z,51.30
2023-02-27T14:56:04.208Z,51.71
2023-02-27T14:58:30.088Z,51.48
2023-02-27T15:01:04.185Z,51.94
2023-02-27T15:03:46.407Z,53.49
2023-02-27T15:06:17.001Z,54.23
2023-02-27T15:08:47.331Z,54.81
2023-02-27T15:11:15.714Z,55.64
2023-02-27T15:13:42.953Z,54.96
2023-02-27T15:16:19.897Z,54.38
2023-02-27T15:18:50.984Z,54.37
2023-02-27T15:21:19.681Z,55.21
2023-02-27T15:24:04.009Z,54.26
2023-02-27T15:26:37.753Z,53.63
2023-02-27T15:29:05.615Z,53.79
2023-02-27T15:31:31.837Z,53.61
2023-02-27T15:34:00.785Z,55.08
2023-02-27T15:36:31.024Z,54.55
2023-02-27T15:39:14.585Z,55.51
2023-02-27T15:41:51.818Z,56.79
2023-02-27T15:44:22.948Z,58.63
2023-02-27T15:46:50.305Z,60.21
2023-02-27T15:49:22.014Z,60.43
2023-02-27T15:51:57.604Z,60.14
2023-02-27T15:54:23.394Z,60.03
2023-02-27T15:56:50.407Z,60.52
2023-02-27T15:59:18.941Z,59.87
2023-02-27T16:01:47.253Z,59.90
2023-02-27T16:04:22.927Z,59.00
2023-02-27T16:07:02.104Z,60.66
2023-02-27T16:09:32.287Z,60.07
2023-02-27T16:12:29.315Z,59.64
2023-02-27T16:15:26.324Z,58.67
2023-02-27T16:18:00.675Z,57.92
2023-02-27T16:20:55.032Z,58.93
2023-02-27T16:23:20.987Z,58.98
2023-02-27T16:26:08.374Z,59.56
2023-02-27T16:29:00.469Z,61.36
2023-02-27T16:31:28.022Z,60.24
2023-02-27T16:33:56.181Z,60.85
2023-02-27T16:36:28.452Z,60.88
2023-02-27T16:38:54.876Z,61.16
2023-02-27T16:41:22.211Z,61.46
2023-02-27T16:43:48.487Z,62.35
2023-02-27T16:46:20.849Z,62.14
2023-02-27T16:48:53.258Z,61.39
2023-02-27T16:51:23.149Z,62.33
2023-02-27T16:53:50.644Z,63.60
2023-02-27T16:56:21.484Z,63.87
2023-02-27T16:58:52.505Z,64.45
2023-02-27T17:01:18.586Z,65.59
2023-02-27T17:03:45.961Z,66.05
2023-02-27T17:06:13.812Z,66.67
2023-02-27T17:08:42.173Z,66.21
2023-02-27T17:11:08.747Z,66.35
2023-02-27T17:13:38.138Z,66.60
2023-02-27T17:16:05.111Z,66.59
2023-02-27T17:18:31.440Z,66.87
2023-02-27T17:21:01.657Z,67.93
2023-02-27T17:23:27.594Z,67.31
2023-02-27T17:25:53.704Z,67.76
2023-02-27T17:28:20.691Z,67.46
2023-02-27T17:30:47.498Z,67.78
2023-02-27T17:33:13.503Z,69.88
2023-02-27T17:35:39.419Z,70.15
2023-02-27T17:38:07.374Z,70.93
2023-02-27T17:40:35.794Z,71.45
2023-02-27T17:43:01.683Z,70.94
2023-02-27T17:45:27.666Z,71.23
2023-02-27T17:47:53.711Z,70.34
2023-02-27T17:50:19.577Z,70.66
2023-02-27T17:52:45.500Z,71.47
2023-02-27T17:55:13.570Z,70.71
2023-02-27T17:57:41.821Z,70.95
2023-02-27T18:00:13.670Z,70.85
2023-02-27T18:02:41.540Z,71.77
2023-02-27T18:05:07.733Z,71.98
2023-02-27T18:07:34.031Z,72.29
2023-02-27T18:10:00.013Z,71.97
2023-02-27T18:12:25.911Z,70.78
2023-02-27T18:14:51.818Z,72.64
2023-02-27T18:17:17.620Z,72.98
2023-02-27T18:19:43.641Z,73.80
2023-02-27T18:22:10.198Z,74.50
2023-02-27T18:24:37.364Z,74.37
2023-02-27T18:27:03.605Z,74.82
2023-02-27T18:29:29.732Z,73.43
2023-02-27T18:31:56.057Z,74.31
2023-02-27T18:34:23.004Z,74.14
2023-02-27T18:36:51.182Z,74.96
2023-02-27T18:39:17.723Z,74.33
2023-02-27T18:41:43.766Z,74.33
2023-02-27T18:44:10.014Z,75.16
2023-02-27T18:46:37.602Z,76.11
2023-02-27T18:49:04.110Z,75.01
2023-02-27T18:51:30.209Z,75.02
2023-02-27T18:53:57.564Z,74.91
2023-02-27T18:56:24.690Z,74.70
2023-02-27T18:58:51.245Z,75.20
2023-02-27T19:01:28.755Z,75.76
2023-02-27T19:03:59.593Z,74.77
2023-02-27T19:06:26.730Z,75.27
2023-02-27T19:08:52.811Z,75.25
2023-02-27T19:11:22.414Z,74.63
2023-02-27T19:13:48.351Z,75.41
2023-02-27T19:16:14.607Z,75.01
2023-02-27T19:18:40.460Z,75.06
2023-02-27T19:21:06.769Z,75.67
2023-02-27T19:23:32.570Z,75.82
2023-02-27T19:26:01.336Z,77.66
2023-02-27T19:28:27.325Z,76.18
2023-02-27T19:30:53.489Z,75.64
2023-02-27T19:33:19.767Z,74.75
2023-02-27T19:35:46.379Z,75.75
2023-02-27T19:38:12.248Z,75.82
2023-02-27T19:40:38.116Z,76.12
2023-02-27T19:43:04.135Z,75.20
2023-02-27T19:45:30.236Z,76.77
2023-02-27T19:47:56.206Z,76.91
2023-02-27T19:50:22.095Z,77.14
2023-02-27T19:52:48.098Z,77.85
2023-02-27T19:55:14.204Z,78.64
2023-02-27T19:57:40.176Z,78.83
2023-02-27T20:00:07.527Z,79.90
2023-02-27T20:02:33.390Z,80.31
2023-02-27T20:04:59.446Z,79.63
2023-02-27T20:07:28.275Z,79.99
2023-02-27T20:09:57.282Z,79.87
2023-02-27T20:12:24.991Z,80.50
2023-02-27T20:14:51.240Z,81.18
2023-02-27T20:17:17.468Z,82.50
2023-02-27T20:19:43.385Z,82.31
2023-02-27T20:22:12.826Z,81.75
2023-02-27T20:24:39.187Z,82.16
2023-02-27T20:27:06.567Z,82.35
2023-02-27T20:29:32.473Z,82.42
2023-02-27T20:31:58.428Z,83.15
2023-02-27T20:34:25.720Z,85.24
2023-02-27T20:36:53.640Z,84.34
2023-02-27T20:39:22.418Z,84.22
2023-02-27T20:41:48.821Z,83.64
2023-02-27T20:44:14.977Z,84.16
2023-02-27T20:46:43.102Z,83.88
2023-02-27T20:49:11.750Z,85.03
2023-02-27T20:51:39.613Z,84.59
2023-02-27T20:54:08.828Z,84.80
2023-02-27T20:56:39.241Z,85.02
2023-02-27T20:59:07.399Z,85.43
2023-02-27T21:01:33.599Z,86.02
2023-02-27T21:03:59.833Z,86.11
2023-02-27T21:06:26.665Z,87.09
2023-02-27T21:08:55.220Z,86.86
2023-02-27T21:11:29.667Z,87.64
2023-02-27T21:13:57.778Z,88.35
2023-02-27T21:16:27.247Z,88.29
2023-02-27T21:18:55.853Z,88.94
2023-02-27T21:21:30.662Z,89.10
2023-02-27T21:23:57.816Z,87.99
2023-02-27T21:26:25.081Z,86.73
2023-02-27T21:29:06.041Z,87.28
2023-02-27T21:31:33.614Z,86.60
2023-02-27T21:34:03.720Z,87.25
2023-02-27T21:36:36.462Z,87.30
2023-02-27T21:39:05.835Z,88.06
2023-02-27T21:41:32.682Z,88.46
2023-02-27T21:44:03.354Z,89.38
2023-02-27T21:46:29.928Z,88.98
2023-02-27T21:48:55.976Z,88.81
2023-02-27T21:51:37.034Z,89.53
2023-02-27T21:54:04.676Z,90.00
2023-02-27T21:56:30.816Z,89.58
2023-02-27T21:59:00.928Z,90.87
2023-02-27T22:01:27.801Z,91.61
2023-02-27T22:03:54.559Z,91.54
2023-02-27T22:06:22.814Z,91.40
2023-02-27T22:08:55.498Z,90.79
2023-02-27T22:11:23.228Z,91.43
2023-02-27T22:13:49.158Z,91.84
2023-02-27T22:16:15.191Z,91.90
2023-02-27T22:18:41.340Z,91.13
2023-02-27T22:21:13.133Z,92.21
2023-02-27T22:23:38.978Z,92.71
2023-02-27T22:26:08.408Z,92.06
2023-02-27T22:28:35.391Z,93.60
2023-02-27T22:31:12.656Z,93.78
2023-02-27T22:33:39.902Z,95.77
2023-02-27T22:36:11.202Z,96.69
2023-02-27T22:38:37.269Z,96.24
2023-02-27T22:41:05.651Z,96.56
2023-02-27T22:43:34.013Z,96.85
2023-02-27T22:46:02.126Z,97.57
2023-02-27T22:48:28.115Z,97.40
2023-02-27T22:51:10.598Z,97.19
2023-02-27T22:53:37.537Z,96.62
2023-02-27T22:56:06.398Z,96.78
2023-02-27T22:58:36.988Z,97.53
2023-02-27T23:01:15.830Z,96.67
2023-02-27T23:03:43.632Z,97.23
2023-02-27T23:06:12.750Z,98.58
2023-02-27T23:08:39.801Z,98.42
2023-02-27T23:11:06.194Z,98.44
2023-02-27T23:13:32.059Z,97.40
2023-02-27T23:15:58.886Z,97.75
2023-02-27T23:18:24.985Z,97.79
2023-02-27T23:20:50.889Z,97.78
2023-02-27T23:23:16.776Z,98.24
2023-02-27T23:25:42.755Z,98.17
2023-02-27T23:28:08.581Z,98.08
2023-02-27T23:30:34.481Z,98.99
2023-02-27T23:33:00.514Z,99.05
2023-02-27T23:35:27.170Z,100.00
2023-02-27T23:37:55.602Z,100.00
2023-02-27T23:40:23.800Z,100.00
2023-02-27T23:43:08.056Z,100.00
2023-02-27T23:45:34.082Z,100.00
2023-02-27T23:48:01.265Z,100.00
2023-02-27T23:50:30.329Z,100.00
2023-02-27T23:52:58.278Z,100.00
2023-02-27T23:55:27.365Z,99.45
2023-02-27T23:57:54.636Z,99.15
